sensor_id;sensor_type;location;lat;lon;timestamp;temperature;humidity
84335;DHT22;74512;51.190;3.198;2024-03-02T00:00:14;10.10;1.00
84335;DHT22;74512;51.190;3.198;2024-03-02T00:02:43;10.20;1.00
84335;DHT22;74512;51.190;3.198;2024-03-02T00:05:18;9.80;1.00
84335;DHT22;74512;51.190;3.198;2024-03-02T00:07:45;10.00;1.00
84335;DHT22;74512;51.190;3.198;2024-03-02T00:10:14;9.90;1.00
84335;DHT22;74512;51.190;3.198;2024-03-02T00:12:42;9.70;1.00
84335;DHT22;74512;51.190;3.198;2024-03-02T00:18:02;9.70;1.00
84335;DHT22;74512;51.190;3.198;2024-03-02T00:20:29;9.80;1.00
84335;DHT22;74512;51.190;3.198;2024-03-02T00:23:05;10.00;1.00
84335;DHT22;74512;51.190;3.198;2024-03-02T00:25:50;10.00;1.00
84335;DHT22;74512;51.190;3.198;2024-03-02T00:28:33;9.70;1.00
84335;DHT22;74512;51.190;3.198;2024-03-02T00:33:35;10.10;1.00
84335;DHT22;74512;51.190;3.198;2024-03-02T00:36:05;10.00;1.00
84335;DHT22;74512;51.190;3.198;2024-03-02T00:38:32;10.00;1.00
84335;DHT22;74512;51.190;3.198;2024-03-02T00:41:05;10.00;1.00
84335;DHT22;74512;51.190;3.198;2024-03-02T00:46:00;10.10;1.00
84335;DHT22;74512;51.190;3.198;2024-03-02T00:48:25;10.00;1.00
84335;DHT22;74512;51.190;3.198;2024-03-02T00:50:52;10.10;1.00
84335;DHT22;74512;51.190;3.198;2024-03-02T00:53:22;10.10;1.00
84335;DHT22;74512;51.190;3.198;2024-03-02T00:55:50;10.20;1.00
84335;DHT22;74512;51.190;3.198;2024-03-02T00:58:15;10.00;1.00
84335;DHT22;74512;51.190;3.198;2024-03-02T01:00:41;10.10;1.00
84335;DHT22;74512;51.190;3.198;2024-03-02T01:03:07;9.80;1.00
84335;DHT22;74512;51.190;3.198;2024-03-02T01:05:33;9.90;1.00
84335;DHT22;74512;51.190;3.198;2024-03-02T01:07:59;9.50;1.00
84335;DHT22;74512;51.190;3.198;2024-03-02T01:10:24;9.40;1.00
84335;DHT22;74512;51.190;3.198;2024-03-02T01:12:51;9.60;1.00
84335;DHT22;74512;51.190;3.198;2024-03-02T01:15:17;9.70;1.00
84335;DHT22;74512;51.190;3.198;2024-03-02T01:17:43;9.90;1.00
84335;DHT22;74512;51.190;3.198;2024-03-02T01:20:09;9.90;1.00
84335;DHT22;74512;51.190;3.198;2024-03-02T01:22:35;10.10;1.00
84335;DHT22;74512;51.190;3.198;2024-03-02T01:25:01;10.20;1.00
84335;DHT22;74512;51.190;3.198;2024-03-02T01:27:27;10.10;1.00
84335;DHT22;74512;51.190;3.198;2024-03-02T01:29:53;9.90;1.00
84335;DHT22;74512;51.190;3.198;2024-03-02T01:32:20;10.30;1.00
84335;DHT22;74512;51.190;3.198;2024-03-02T01:34:45;9.90;1.00
84335;DHT22;74512;51.190;3.198;2024-03-02T01:37:11;9.90;1.00
84335;DHT22;74512;51.190;3.198;2024-03-02T01:39:37;10.00;1.00
84335;DHT22;74512;51.190;3.198;2024-03-02T01:42:03;9.80;1.00
84335;DHT22;74512;51.190;3.198;2024-03-02T01:44:28;9.40;1.00
84335;DHT22;74512;51.190;3.198;2024-03-02T01:46:54;9.40;1.00
84335;DHT22;74512;51.190;3.198;2024-03-02T01:49:20;9.40;1.00
84335;DHT22;74512;51.190;3.198;2024-03-02T01:51:46;9.50;1.00
84335;DHT22;74512;51.190;3.198;2024-03-02T01:54:11;9.70;1.00
84335;DHT22;74512;51.190;3.198;2024-03-02T01:56:37;9.50;1.00
84335;DHT22;74512;51.190;3.198;2024-03-02T01:59:03;9.70;1.00
84335;DHT22;74512;51.190;3.198;2024-03-02T02:01:28;9.80;1.00
84335;DHT22;74512;51.190;3.198;2024-03-02T02:03:54;9.70;1.00
84335;DHT22;74512;51.190;3.198;2024-03-02T02:06:21;9.70;1.00
84335;DHT22;74512;51.190;3.198;2024-03-02T02:08:47;9.60;1.00
84335;DHT22;74512;51.190;3.198;2024-03-02T02:11:15;9.60;1.00
84335;DHT22;74512;51.190;3.198;2024-03-02T02:13:41;9.40;1.00
84335;DHT22;74512;51.190;3.198;2024-03-02T02:16:07;9.40;1.00
84335;DHT22;74512;51.190;3.198;2024-03-02T02:18:34;9.20;1.00
84335;DHT22;74512;51.190;3.198;2024-03-02T02:20:59;9.40;1.00
84335;DHT22;74512;51.190;3.198;2024-03-02T02:23:25;9.50;1.00
84335;DHT22;74512;51.190;3.198;2024-03-02T02:25:51;9.50;1.00
84335;DHT22;74512;51.190;3.198;2024-03-02T02:28:16;9.50;1.00
84335;DHT22;74512;51.190;3.198;2024-03-02T02:30:42;9.50;1.00
84335;DHT22;74512;51.190;3.198;2024-03-02T02:33:08;9.40;1.00
84335;DHT22;74512;51.190;3.198;2024-03-02T02:35:34;9.30;1.00
84335;DHT22;74512;51.190;3.198;2024-03-02T02:38:00;9.50;1.00
84335;DHT22;74512;51.190;3.198;2024-03-02T02:40:26;9.50;1.00
84335;DHT22;74512;51.190;3.198;2024-03-02T02:42:52;9.10;1.00
84335;DHT22;74512;51.190;3.198;2024-03-02T02:45:18;9.10;1.00
84335;DHT22;74512;51.190;3.198;2024-03-02T02:47:44;8.90;1.00
84335;DHT22;74512;51.190;3.198;2024-03-02T02:50:11;8.70;1.00
84335;DHT22;74512;51.190;3.198;2024-03-02T02:52:39;8.90;1.00
84335;DHT22;74512;51.190;3.198;2024-03-02T02:55:07;9.10;1.00
84335;DHT22;74512;51.190;3.198;2024-03-02T02:57:34;9.10;1.00
84335;DHT22;74512;51.190;3.198;2024-03-02T03:00:11;9.30;1.00
84335;DHT22;74512;51.190;3.198;2024-03-02T03:02:44;9.50;1.00
84335;DHT22;74512;51.190;3.198;2024-03-02T03:05:11;9.60;1.00
84335;DHT22;74512;51.190;3.198;2024-03-02T03:07:37;9.40;1.00
84335;DHT22;74512;51.190;3.198;2024-03-02T03:10:05;9.50;1.00
84335;DHT22;74512;51.190;3.198;2024-03-02T03:12:32;9.20;1.00
84335;DHT22;74512;51.190;3.198;2024-03-02T03:14:58;9.40;1.00
84335;DHT22;74512;51.190;3.198;2024-03-02T03:17:24;9.10;1.00
84335;DHT22;74512;51.190;3.198;2024-03-02T03:19:50;9.00;1.00
84335;DHT22;74512;51.190;3.198;2024-03-02T03:22:16;9.20;1.00
84335;DHT22;74512;51.190;3.198;2024-03-02T03:24:42;9.40;1.00
84335;DHT22;74512;51.190;3.198;2024-03-02T03:27:07;9.30;1.00
84335;DHT22;74512;51.190;3.198;2024-03-02T03:29:33;9.20;1.00
84335;DHT22;74512;51.190;3.198;2024-03-02T03:31:59;9.50;1.00
84335;DHT22;74512;51.190;3.198;2024-03-02T03:34:24;9.40;1.00
84335;DHT22;74512;51.190;3.198;2024-03-02T03:36:50;9.10;1.00
84335;DHT22;74512;51.190;3.198;2024-03-02T03:39:16;9.10;1.00
84335;DHT22;74512;51.190;3.198;2024-03-02T03:41:43;9.40;1.00
84335;DHT22;74512;51.190;3.198;2024-03-02T03:44:08;9.00;1.00
84335;DHT22;74512;51.190;3.198;2024-03-02T03:46:34;9.10;1.00
84335;DHT22;74512;51.190;3.198;2024-03-02T03:49:00;9.20;1.00
84335;DHT22;74512;51.190;3.198;2024-03-02T03:51:26;9.30;1.00
84335;DHT22;74512;51.190;3.198;2024-03-02T03:53:51;9.20;1.00
84335;DHT22;74512;51.190;3.198;2024-03-02T03:56:17;9.40;1.00
84335;DHT22;74512;51.190;3.198;2024-03-02T03:58:42;9.30;1.00
84335;DHT22;74512;51.190;3.198;2024-03-02T04:01:08;9.10;1.00
84335;DHT22;74512;51.190;3.198;2024-03-02T04:03:34;9.40;1.00
84335;DHT22;74512;51.190;3.198;2024-03-02T04:05:59;9.00;1.00
84335;DHT22;74512;51.190;3.198;2024-03-02T04:08:25;8.90;1.00
84335;DHT22;74512;51.190;3.198;2024-03-02T04:10:50;9.50;1.00
84335;DHT22;74512;51.190;3.198;2024-03-02T04:13:16;9.30;1.00
84335;DHT22;74512;51.190;3.198;2024-03-02T04:15:42;9.00;1.00
84335;DHT22;74512;51.190;3.198;2024-03-02T04:18:07;9.20;1.00
84335;DHT22;74512;51.190;3.198;2024-03-02T04:20:33;9.40;1.00
84335;DHT22;74512;51.190;3.198;2024-03-02T04:22:58;9.50;1.00
84335;DHT22;74512;51.190;3.198;2024-03-02T04:25:24;9.50;1.00
84335;DHT22;74512;51.190;3.198;2024-03-02T04:27:50;9.20;1.00
84335;DHT22;74512;51.190;3.198;2024-03-02T04:30:15;9.40;1.00
84335;DHT22;74512;51.190;3.198;2024-03-02T04:32:41;9.20;1.00
84335;DHT22;74512;51.190;3.198;2024-03-02T04:35:07;8.90;1.00
84335;DHT22;74512;51.190;3.198;2024-03-02T04:37:34;9.00;1.00
84335;DHT22;74512;51.190;3.198;2024-03-02T04:40:00;9.10;1.00
84335;DHT22;74512;51.190;3.198;2024-03-02T04:42:26;9.30;1.00
84335;DHT22;74512;51.190;3.198;2024-03-02T04:44:51;9.60;1.00
84335;DHT22;74512;51.190;3.198;2024-03-02T04:47:17;9.60;1.00
84335;DHT22;74512;51.190;3.198;2024-03-02T04:49:43;9.70;1.00
84335;DHT22;74512;51.190;3.198;2024-03-02T04:52:09;9.40;1.00
84335;DHT22;74512;51.190;3.198;2024-03-02T04:54:35;9.60;1.00
84335;DHT22;74512;51.190;3.198;2024-03-02T04:57:20;9.40;1.00
84335;DHT22;74512;51.190;3.198;2024-03-02T04:59:46;9.20;1.00
84335;DHT22;74512;51.190;3.198;2024-03-02T05:02:11;9.40;1.00
84335;DHT22;74512;51.190;3.198;2024-03-02T05:04:39;8.80;1.00
84335;DHT22;74512;51.190;3.198;2024-03-02T05:07:05;9.20;1.00
84335;DHT22;74512;51.190;3.198;2024-03-02T05:09:31;9.50;1.00
84335;DHT22;74512;51.190;3.198;2024-03-02T05:11:56;9.50;1.00
84335;DHT22;74512;51.190;3.198;2024-03-02T05:14:42;9.60;1.00
84335;DHT22;74512;51.190;3.198;2024-03-02T05:17:08;9.20;1.00
84335;DHT22;74512;51.190;3.198;2024-03-02T05:19:34;9.40;1.00
84335;DHT22;74512;51.190;3.198;2024-03-02T05:21:59;9.30;1.00
84335;DHT22;74512;51.190;3.198;2024-03-02T05:24:25;9.40;1.00
84335;DHT22;74512;51.190;3.198;2024-03-02T05:26:53;9.60;1.00
84335;DHT22;74512;51.190;3.198;2024-03-02T05:29:19;9.60;1.00
84335;DHT22;74512;51.190;3.198;2024-03-02T05:31:44;9.00;1.00
84335;DHT22;74512;51.190;3.198;2024-03-02T05:34:10;8.70;1.00
84335;DHT22;74512;51.190;3.198;2024-03-02T05:36:35;8.60;1.00
84335;DHT22;74512;51.190;3.198;2024-03-02T05:39:02;8.50;1.00
84335;DHT22;74512;51.190;3.198;2024-03-02T05:41:30;8.50;1.00
84335;DHT22;74512;51.190;3.198;2024-03-02T05:43:56;8.40;1.00
84335;DHT22;74512;51.190;3.198;2024-03-02T05:46:22;8.50;1.00
84335;DHT22;74512;51.190;3.198;2024-03-02T05:48:48;8.70;1.00
84335;DHT22;74512;51.190;3.198;2024-03-02T05:51:13;8.90;1.00
84335;DHT22;74512;51.190;3.198;2024-03-02T05:53:39;8.80;1.00
84335;DHT22;74512;51.190;3.198;2024-03-02T05:56:05;8.50;1.00
84335;DHT22;74512;51.190;3.198;2024-03-02T05:58:31;8.80;1.00
84335;DHT22;74512;51.190;3.198;2024-03-02T06:01:16;8.50;1.00
84335;DHT22;74512;51.190;3.198;2024-03-02T06:03:43;8.30;1.00
84335;DHT22;74512;51.190;3.198;2024-03-02T06:06:09;8.20;1.00
84335;DHT22;74512;51.190;3.198;2024-03-02T06:08:34;8.20;1.00
84335;DHT22;74512;51.190;3.198;2024-03-02T06:11:00;8.40;1.00
84335;DHT22;74512;51.190;3.198;2024-03-02T06:13:26;8.20;1.00
84335;DHT22;74512;51.190;3.198;2024-03-02T06:15:52;8.30;1.00
84335;DHT22;74512;51.190;3.198;2024-03-02T06:18:18;8.40;1.00
84335;DHT22;74512;51.190;3.198;2024-03-02T06:20:43;8.70;1.00
84335;DHT22;74512;51.190;3.198;2024-03-02T06:23:09;8.20;1.00
84335;DHT22;74512;51.190;3.198;2024-03-02T06:25:35;8.40;1.00
84335;DHT22;74512;51.190;3.198;2024-03-02T06:28:01;8.10;1.00
84335;DHT22;74512;51.190;3.198;2024-03-02T06:30:27;8.10;1.00
84335;DHT22;74512;51.190;3.198;2024-03-02T06:32:52;8.10;1.00
84335;DHT22;74512;51.190;3.198;2024-03-02T06:35:18;8.10;1.00
84335;DHT22;74512;51.190;3.198;2024-03-02T06:37:44;8.00;1.00
84335;DHT22;74512;51.190;3.198;2024-03-02T06:40:09;7.90;1.00
84335;DHT22;74512;51.190;3.198;2024-03-02T06:42:35;8.00;1.00
84335;DHT22;74512;51.190;3.198;2024-03-02T06:45:02;8.10;1.00
84335;DHT22;74512;51.190;3.198;2024-03-02T06:47:28;8.40;1.00
84335;DHT22;74512;51.190;3.198;2024-03-02T06:49:54;8.50;1.00
84335;DHT22;74512;51.190;3.198;2024-03-02T06:52:20;8.10;1.00
84335;DHT22;74512;51.190;3.198;2024-03-02T06:54:48;8.30;1.00
84335;DHT22;74512;51.190;3.198;2024-03-02T06:57:14;8.70;1.00
84335;DHT22;74512;51.190;3.198;2024-03-02T06:59:39;8.70;1.00
84335;DHT22;74512;51.190;3.198;2024-03-02T07:02:05;8.60;1.00
84335;DHT22;74512;51.190;3.198;2024-03-02T07:04:30;8.30;1.00
84335;DHT22;74512;51.190;3.198;2024-03-02T07:06:56;8.00;1.00
84335;DHT22;74512;51.190;3.198;2024-03-02T07:09:22;8.10;1.00
84335;DHT22;74512;51.190;3.198;2024-03-02T07:11:48;8.40;1.00
84335;DHT22;74512;51.190;3.198;2024-03-02T07:14:14;8.00;1.00
84335;DHT22;74512;51.190;3.198;2024-03-02T07:16:40;7.80;1.00
84335;DHT22;74512;51.190;3.198;2024-03-02T07:19:08;7.70;1.00
84335;DHT22;74512;51.190;3.198;2024-03-02T07:21:34;7.90;1.00
84335;DHT22;74512;51.190;3.198;2024-03-02T07:24:00;7.90;1.00
84335;DHT22;74512;51.190;3.198;2024-03-02T07:26:28;8.00;1.00
84335;DHT22;74512;51.190;3.198;2024-03-02T07:28:55;8.10;1.00
84335;DHT22;74512;51.190;3.198;2024-03-02T07:31:21;8.00;1.00
84335;DHT22;74512;51.190;3.198;2024-03-02T07:33:46;8.20;1.00
84335;DHT22;74512;51.190;3.198;2024-03-02T07:36:12;8.30;1.00
84335;DHT22;74512;51.190;3.198;2024-03-02T07:38:38;8.60;1.00
84335;DHT22;74512;51.190;3.198;2024-03-02T07:41:04;8.30;1.00
84335;DHT22;74512;51.190;3.198;2024-03-02T07:43:30;8.10;1.00
84335;DHT22;74512;51.190;3.198;2024-03-02T07:45:57;8.00;1.00
84335;DHT22;74512;51.190;3.198;2024-03-02T07:48:23;8.10;1.00
84335;DHT22;74512;51.190;3.198;2024-03-02T07:50:48;8.30;1.00
84335;DHT22;74512;51.190;3.198;2024-03-02T07:53:14;8.50;1.00
84335;DHT22;74512;51.190;3.198;2024-03-02T07:55:40;8.90;1.00
84335;DHT22;74512;51.190;3.198;2024-03-02T07:58:06;8.70;1.00
84335;DHT22;74512;51.190;3.198;2024-03-02T08:00:32;8.70;1.00
84335;DHT22;74512;51.190;3.198;2024-03-02T08:02:58;8.90;1.00
84335;DHT22;74512;51.190;3.198;2024-03-02T08:05:24;9.00;1.00
84335;DHT22;74512;51.190;3.198;2024-03-02T08:07:50;8.90;1.00
84335;DHT22;74512;51.190;3.198;2024-03-02T08:10:18;9.30;1.00
84335;DHT22;74512;51.190;3.198;2024-03-02T08:12:45;9.20;1.00
84335;DHT22;74512;51.190;3.198;2024-03-02T08:15:10;9.20;1.00
84335;DHT22;74512;51.190;3.198;2024-03-02T08:17:38;9.00;1.00
84335;DHT22;74512;51.190;3.198;2024-03-02T08:20:11;9.30;1.00
84335;DHT22;74512;51.190;3.198;2024-03-02T08:22:37;9.10;1.00
84335;DHT22;74512;51.190;3.198;2024-03-02T08:25:04;9.30;1.00
84335;DHT22;74512;51.190;3.198;2024-03-02T08:27:30;9.40;1.00
84335;DHT22;74512;51.190;3.198;2024-03-02T08:29:57;9.20;1.00
84335;DHT22;74512;51.190;3.198;2024-03-02T08:32:23;9.10;1.00
84335;DHT22;74512;51.190;3.198;2024-03-02T08:34:48;9.20;1.00
84335;DHT22;74512;51.190;3.198;2024-03-02T08:37:14;9.20;1.00
84335;DHT22;74512;51.190;3.198;2024-03-02T08:39:40;9.20;1.00
84335;DHT22;74512;51.190;3.198;2024-03-02T08:42:06;8.90;1.00
84335;DHT22;74512;51.190;3.198;2024-03-02T08:44:31;9.00;1.00
84335;DHT22;74512;51.190;3.198;2024-03-02T08:46:58;8.80;1.00
84335;DHT22;74512;51.190;3.198;2024-03-02T08:49:24;9.10;1.00
84335;DHT22;74512;51.190;3.198;2024-03-02T08:51:50;9.30;1.00
84335;DHT22;74512;51.190;3.198;2024-03-02T08:54:21;9.60;1.00
84335;DHT22;74512;51.190;3.198;2024-03-02T08:56:48;9.40;1.00
84335;DHT22;74512;51.190;3.198;2024-03-02T08:59:13;9.70;1.00
84335;DHT22;74512;51.190;3.198;2024-03-02T09:01:39;9.50;1.00
84335;DHT22;74512;51.190;3.198;2024-03-02T09:04:07;9.40;1.00
84335;DHT22;74512;51.190;3.198;2024-03-02T09:06:34;9.90;1.00
84335;DHT22;74512;51.190;3.198;2024-03-02T09:09:00;9.80;1.00
84335;DHT22;74512;51.190;3.198;2024-03-02T09:11:26;10.00;1.00
84335;DHT22;74512;51.190;3.198;2024-03-02T09:13:52;10.10;1.00
84335;DHT22;74512;51.190;3.198;2024-03-02T09:16:18;10.30;1.00
84335;DHT22;74512;51.190;3.198;2024-03-02T09:18:44;10.10;1.00
84335;DHT22;74512;51.190;3.198;2024-03-02T09:21:10;9.70;1.00
84335;DHT22;74512;51.190;3.198;2024-03-02T09:23:36;9.80;1.00
84335;DHT22;74512;51.190;3.198;2024-03-02T09:26:02;9.90;1.00
84335;DHT22;74512;51.190;3.198;2024-03-02T09:28:28;10.00;1.00
84335;DHT22;74512;51.190;3.198;2024-03-02T09:30:54;9.70;1.00
84335;DHT22;74512;51.190;3.198;2024-03-02T09:33:20;9.40;1.00
84335;DHT22;74512;51.190;3.198;2024-03-02T09:35:46;9.50;1.00
84335;DHT22;74512;51.190;3.198;2024-03-02T09:38:11;9.50;1.00
84335;DHT22;74512;51.190;3.198;2024-03-02T09:40:37;9.30;1.00
84335;DHT22;74512;51.190;3.198;2024-03-02T09:43:03;9.40;1.00
84335;DHT22;74512;51.190;3.198;2024-03-02T09:45:30;9.60;1.00
84335;DHT22;74512;51.190;3.198;2024-03-02T09:47:55;9.60;1.00
84335;DHT22;74512;51.190;3.198;2024-03-02T09:50:21;9.70;1.00
84335;DHT22;74512;51.190;3.198;2024-03-02T09:52:50;9.40;1.00
84335;DHT22;74512;51.190;3.198;2024-03-02T09:55:16;9.30;1.00
84335;DHT22;74512;51.190;3.198;2024-03-02T09:57:43;9.30;1.00
84335;DHT22;74512;51.190;3.198;2024-03-02T10:00:09;9.50;1.00
84335;DHT22;74512;51.190;3.198;2024-03-02T10:02:40;9.50;1.00
84335;DHT22;74512;51.190;3.198;2024-03-02T10:05:07;9.50;1.00
84335;DHT22;74512;51.190;3.198;2024-03-02T10:07:33;9.80;1.00
84335;DHT22;74512;51.190;3.198;2024-03-02T10:10:15;9.60;1.00
84335;DHT22;74512;51.190;3.198;2024-03-02T10:12:41;9.90;1.00
84335;DHT22;74512;51.190;3.198;2024-03-02T10:15:07;9.80;1.00
84335;DHT22;74512;51.190;3.198;2024-03-02T10:17:34;9.70;1.00
84335;DHT22;74512;51.190;3.198;2024-03-02T10:20:23;9.80;1.00
84335;DHT22;74512;51.190;3.198;2024-03-02T10:22:49;10.00;1.00
84335;DHT22;74512;51.190;3.198;2024-03-02T10:25:32;9.80;1.00
84335;DHT22;74512;51.190;3.198;2024-03-02T10:27:59;9.80;1.00
84335;DHT22;74512;51.190;3.198;2024-03-02T10:30:29;10.00;1.00
84335;DHT22;74512;51.190;3.198;2024-03-02T10:32:55;10.20;1.00
84335;DHT22;74512;51.190;3.198;2024-03-02T10:35:24;10.40;1.00
84335;DHT22;74512;51.190;3.198;2024-03-02T10:37:51;10.00;1.00
84335;DHT22;74512;51.190;3.198;2024-03-02T10:40:18;10.20;1.00
84335;DHT22;74512;51.190;3.198;2024-03-02T10:42:45;10.00;1.00
84335;DHT22;74512;51.190;3.198;2024-03-02T10:45:14;10.20;1.00
84335;DHT22;74512;51.190;3.198;2024-03-02T10:47:42;10.20;1.00
84335;DHT22;74512;51.190;3.198;2024-03-02T10:50:08;10.20;1.00
84335;DHT22;74512;51.190;3.198;2024-03-02T10:52:38;10.00;1.00
84335;DHT22;74512;51.190;3.198;2024-03-02T10:55:09;10.00;1.00
84335;DHT22;74512;51.190;3.198;2024-03-02T10:57:45;10.20;1.00
84335;DHT22;74512;51.190;3.198;2024-03-02T11:00:15;10.20;1.00
84335;DHT22;74512;51.190;3.198;2024-03-02T11:02:55;10.10;1.00
84335;DHT22;74512;51.190;3.198;2024-03-02T11:05:33;10.30;1.00
84335;DHT22;74512;51.190;3.198;2024-03-02T11:08:02;10.30;1.00
84335;DHT22;74512;51.190;3.198;2024-03-02T11:10:34;10.30;1.00
84335;DHT22;74512;51.190;3.198;2024-03-02T11:13:05;10.20;1.00
84335;DHT22;74512;51.190;3.198;2024-03-02T11:15:31;10.30;1.00
84335;DHT22;74512;51.190;3.198;2024-03-02T11:17:59;10.50;1.00
84335;DHT22;74512;51.190;3.198;2024-03-02T11:20:25;10.40;1.00
84335;DHT22;74512;51.190;3.198;2024-03-02T11:22:51;10.60;1.00
84335;DHT22;74512;51.190;3.198;2024-03-02T11:25:27;10.60;1.00
84335;DHT22;74512;51.190;3.198;2024-03-02T11:33:09;10.30;1.00
84335;DHT22;74512;51.190;3.198;2024-03-02T11:35:36;10.30;1.00
84335;DHT22;74512;51.190;3.198;2024-03-02T11:38:03;10.40;1.00
84335;DHT22;74512;51.190;3.198;2024-03-02T11:40:30;10.40;1.00
84335;DHT22;74512;51.190;3.198;2024-03-02T11:43:00;10.50;1.00
84335;DHT22;74512;51.190;3.198;2024-03-02T11:45:29;10.60;1.00
84335;DHT22;74512;51.190;3.198;2024-03-02T11:47:59;10.70;1.00
84335;DHT22;74512;51.190;3.198;2024-03-02T11:50:36;10.50;1.00
84335;DHT22;74512;51.190;3.198;2024-03-02T11:53:06;10.40;1.00
84335;DHT22;74512;51.190;3.198;2024-03-02T11:55:35;10.30;1.00
84335;DHT22;74512;51.190;3.198;2024-03-02T11:58:05;10.40;1.00
84335;DHT22;74512;51.190;3.198;2024-03-02T12:00:30;10.60;1.00
84335;DHT22;74512;51.190;3.198;2024-03-02T12:03:04;10.60;1.00
84335;DHT22;74512;51.190;3.198;2024-03-02T12:05:31;10.60;1.00
84335;DHT22;74512;51.190;3.198;2024-03-02T12:08:02;10.70;1.00
84335;DHT22;74512;51.190;3.198;2024-03-02T12:10:28;10.80;1.00
84335;DHT22;74512;51.190;3.198;2024-03-02T12:13:04;11.00;1.00
84335;DHT22;74512;51.190;3.198;2024-03-02T12:15:35;11.00;1.00
84335;DHT22;74512;51.190;3.198;2024-03-02T12:18:05;10.80;1.00
84335;DHT22;74512;51.190;3.198;2024-03-02T12:20:32;10.90;1.00
84335;DHT22;74512;51.190;3.198;2024-03-02T12:23:00;10.60;1.00
84335;DHT22;74512;51.190;3.198;2024-03-02T12:25:26;10.60;1.00
84335;DHT22;74512;51.190;3.198;2024-03-02T12:27:54;10.60;1.00
84335;DHT22;74512;51.190;3.198;2024-03-02T12:30:21;10.60;1.00
84335;DHT22;74512;51.190;3.198;2024-03-02T12:32:47;10.80;1.00
84335;DHT22;74512;51.190;3.198;2024-03-02T12:35:14;10.50;1.00
84335;DHT22;74512;51.190;3.198;2024-03-02T12:37:46;10.70;1.00
84335;DHT22;74512;51.190;3.198;2024-03-02T12:40:13;10.80;1.00
84335;DHT22;74512;51.190;3.198;2024-03-02T12:42:39;10.70;1.00
84335;DHT22;74512;51.190;3.198;2024-03-02T12:45:07;10.70;1.00
84335;DHT22;74512;51.190;3.198;2024-03-02T12:47:37;10.80;1.00
84335;DHT22;74512;51.190;3.198;2024-03-02T12:50:04;10.80;1.00
84335;DHT22;74512;51.190;3.198;2024-03-02T12:52:30;10.60;1.00
84335;DHT22;74512;51.190;3.198;2024-03-02T12:54:59;10.40;1.00
84335;DHT22;74512;51.190;3.198;2024-03-02T12:57:26;10.50;1.00
84335;DHT22;74512;51.190;3.198;2024-03-02T12:59:58;10.50;1.00
84335;DHT22;74512;51.190;3.198;2024-03-02T13:02:23;10.50;1.00
84335;DHT22;74512;51.190;3.198;2024-03-02T13:04:53;10.60;1.00
84335;DHT22;74512;51.190;3.198;2024-03-02T13:07:24;10.80;1.00
84335;DHT22;74512;51.190;3.198;2024-03-02T13:09:50;10.90;1.00
84335;DHT22;74512;51.190;3.198;2024-03-02T13:12:16;10.80;1.00
84335;DHT22;74512;51.190;3.198;2024-03-02T13:14:42;10.90;1.00
84335;DHT22;74512;51.190;3.198;2024-03-02T13:17:09;10.70;1.00
84335;DHT22;74512;51.190;3.198;2024-03-02T13:19:35;10.70;1.00
84335;DHT22;74512;51.190;3.198;2024-03-02T13:22:01;10.70;1.00
84335;DHT22;74512;51.190;3.198;2024-03-02T13:24:30;10.90;1.00
84335;DHT22;74512;51.190;3.198;2024-03-02T13:26:56;11.00;1.00
84335;DHT22;74512;51.190;3.198;2024-03-02T13:29:23;11.10;1.00
84335;DHT22;74512;51.190;3.198;2024-03-02T13:31:49;10.90;1.00
84335;DHT22;74512;51.190;3.198;2024-03-02T13:34:15;10.70;1.00
84335;DHT22;74512;51.190;3.198;2024-03-02T13:36:41;10.60;1.00
84335;DHT22;74512;51.190;3.198;2024-03-02T13:39:07;10.60;1.00
84335;DHT22;74512;51.190;3.198;2024-03-02T13:41:35;10.60;1.00
84335;DHT22;74512;51.190;3.198;2024-03-02T13:44:01;10.70;1.00
84335;DHT22;74512;51.190;3.198;2024-03-02T13:46:27;10.60;1.00
84335;DHT22;74512;51.190;3.198;2024-03-02T13:48:54;10.60;1.00
84335;DHT22;74512;51.190;3.198;2024-03-02T13:51:20;10.70;1.00
84335;DHT22;74512;51.190;3.198;2024-03-02T13:53:45;10.50;1.00
84335;DHT22;74512;51.190;3.198;2024-03-02T13:56:11;10.30;1.00
84335;DHT22;74512;51.190;3.198;2024-03-02T13:58:37;10.00;1.00
84335;DHT22;74512;51.190;3.198;2024-03-02T14:01:04;10.10;1.00
84335;DHT22;74512;51.190;3.198;2024-03-02T14:03:30;10.10;1.00
84335;DHT22;74512;51.190;3.198;2024-03-02T14:05:56;9.90;1.00
84335;DHT22;74512;51.190;3.198;2024-03-02T14:08:23;10.20;1.00
84335;DHT22;74512;51.190;3.198;2024-03-02T14:10:49;10.20;1.00
84335;DHT22;74512;51.190;3.198;2024-03-02T14:13:14;10.10;1.00
84335;DHT22;74512;51.190;3.198;2024-03-02T14:15:41;10.10;1.00
84335;DHT22;74512;51.190;3.198;2024-03-02T14:18:07;10.30;1.00
84335;DHT22;74512;51.190;3.198;2024-03-02T14:20:35;10.50;1.00
84335;DHT22;74512;51.190;3.198;2024-03-02T14:23:01;10.50;1.00
84335;DHT22;74512;51.190;3.198;2024-03-02T14:25:28;10.50;1.00
84335;DHT22;74512;51.190;3.198;2024-03-02T14:27:58;10.50;1.00
84335;DHT22;74512;51.190;3.198;2024-03-02T14:30:24;10.60;1.00
84335;DHT22;74512;51.190;3.198;2024-03-02T14:32:50;10.80;1.00
84335;DHT22;74512;51.190;3.198;2024-03-02T14:35:16;10.70;1.00
84335;DHT22;74512;51.190;3.198;2024-03-02T14:37:42;11.00;1.00
84335;DHT22;74512;51.190;3.198;2024-03-02T14:40:08;10.90;1.00
84335;DHT22;74512;51.190;3.198;2024-03-02T14:42:35;10.70;1.00
84335;DHT22;74512;51.190;3.198;2024-03-02T14:45:01;10.70;1.00
84335;DHT22;74512;51.190;3.198;2024-03-02T14:47:29;10.90;1.00
84335;DHT22;74512;51.190;3.198;2024-03-02T14:49:55;10.90;1.00
84335;DHT22;74512;51.190;3.198;2024-03-02T14:52:21;11.00;1.00
84335;DHT22;74512;51.190;3.198;2024-03-02T14:54:46;10.90;1.00
84335;DHT22;74512;51.190;3.198;2024-03-02T14:57:12;10.90;1.00
84335;DHT22;74512;51.190;3.198;2024-03-02T14:59:38;11.10;1.00
84335;DHT22;74512;51.190;3.198;2024-03-02T15:02:05;11.30;1.00
84335;DHT22;74512;51.190;3.198;2024-03-02T15:04:31;11.40;1.00
84335;DHT22;74512;51.190;3.198;2024-03-02T15:06:56;11.50;1.00
84335;DHT22;74512;51.190;3.198;2024-03-02T15:09:22;11.40;1.00
84335;DHT22;74512;51.190;3.198;2024-03-02T15:11:48;11.50;1.00
84335;DHT22;74512;51.190;3.198;2024-03-02T15:14:13;11.50;1.00
84335;DHT22;74512;51.190;3.198;2024-03-02T15:16:40;11.30;1.00
84335;DHT22;74512;51.190;3.198;2024-03-02T15:19:06;11.40;1.00
84335;DHT22;74512;51.190;3.198;2024-03-02T15:21:31;11.40;1.00
84335;DHT22;74512;51.190;3.198;2024-03-02T15:23:57;11.50;1.00
84335;DHT22;74512;51.190;3.198;2024-03-02T15:26:23;11.30;1.00
84335;DHT22;74512;51.190;3.198;2024-03-02T15:28:48;11.40;1.00
84335;DHT22;74512;51.190;3.198;2024-03-02T15:31:14;11.10;1.00
84335;DHT22;74512;51.190;3.198;2024-03-02T15:33:40;11.20;1.00
84335;DHT22;74512;51.190;3.198;2024-03-02T15:36:05;11.20;1.00
84335;DHT22;74512;51.190;3.198;2024-03-02T15:38:32;11.30;1.00
84335;DHT22;74512;51.190;3.198;2024-03-02T15:40:58;11.40;1.00
84335;DHT22;74512;51.190;3.198;2024-03-02T15:43:23;11.30;1.00
84335;DHT22;74512;51.190;3.198;2024-03-02T15:45:49;11.30;1.00
84335;DHT22;74512;51.190;3.198;2024-03-02T15:48:15;11.00;1.00
84335;DHT22;74512;51.190;3.198;2024-03-02T15:50:41;11.10;1.00
84335;DHT22;74512;51.190;3.198;2024-03-02T15:53:06;11.10;1.00
84335;DHT22;74512;51.190;3.198;2024-03-02T15:55:33;11.40;1.00
84335;DHT22;74512;51.190;3.198;2024-03-02T15:58:02;11.40;1.00
84335;DHT22;74512;51.190;3.198;2024-03-02T16:00:30;11.10;1.00
84335;DHT22;74512;51.190;3.198;2024-03-02T16:02:56;11.10;1.00
84335;DHT22;74512;51.190;3.198;2024-03-02T16:05:22;11.20;1.00